Time,TemperatureF,DewpointF,PressureIn,WindDirection,WindDirectionDegrees,WindSpeedMPH,WindSpeedGustMPH,Humidity,HourlyPrecipIn,Conditions,Clouds,dailyrainin,SoftwareType,DateUTC
2013-03-22 00:03:00,35.3,31.7,30.16,WNW,293,0.0,0.0,87,0.00,,,0.00,WUHU216HW,2013-03-22 07:03:00,
2013-03-22 00:08:00,35.3,31.4,30.15,NE,45,0.2,0.4,86,0.00,,,0.00,WUHU216HW,2013-03-22 07:08:00,
2013-03-22 00:13:00,35.3,31.7,30.15,NE,45,0.0,0.4,87,0.00,,,0.00,WUHU216HW,2013-03-22 07:13:00,
2013-03-22 00:19:00,35.1,31.5,30.15,NE,45,0.0,0.2,87,0.00,,,0.00,WUHU216HW,2013-03-22 07:19:00,
2013-03-22 00:24:00,35.1,31.5,30.15,ESE,113,0.0,0.0,87,0.00,,,0.00,WUHU216HW,2013-03-22 07:24:00,
2013-03-22 00:29:00,35.1,31.5,30.15,SW,225,0.0,0.0,87,0.00,,,0.00,WUHU216HW,2013-03-22 07:29:00,
2013-03-22 00:34:00,34.9,31.3,30.15,WSW,248,0.4,1.1,87,0.00,,,0.00,WUHU216HW,2013-03-22 07:34:00,
2013-03-22 00:39:00,34.9,31.3,30.15,WSW,248,0.0,1.1,87,0.00,,,0.00,WUHU216HW,2013-03-22 07:39:00,
2013-03-22 00:44:00,34.9,31.3,30.15,WSW,248,0.4,0.4,87,0.00,,,0.00,WUHU216HW,2013-03-22 07:44:00,
2013-03-22 00:49:00,34.7,31.1,30.15,WSW,248,0.9,0.9,87,0.00,,,0.00,WUHU216HW,2013-03-22 07:49:00,
2013-03-22 00:54:00,34.7,31.1,30.15,WSW,248,0.0,0.9,87,0.00,,,0.00,WUHU216HW,2013-03-22 07:54:00,
2013-03-22 00:59:00,34.6,31.0,30.15,WSW,248,0.0,0.9,87,0.00,,,0.00,WUHU216HW,2013-03-22 07:59:00,
2013-03-22 01:04:00,34.6,31.0,30.15,WSW,248,0.0,1.1,87,0.00,,,0.00,WUHU216HW,2013-03-22 08:04:00,
2013-03-22 01:09:00,34.6,31.0,30.15,WSW,248,1.1,1.1,87,0.00,,,0.00,WUHU216HW,2013-03-22 08:09:00,
2013-03-22 01:14:00,34.6,31.0,30.15,WSW,248,0.4,1.1,87,0.00,,,0.00,WUHU216HW,2013-03-22 08:14:00,
2013-03-22 01:19:00,34.6,31.0,30.15,WSW,248,0.7,1.1,87,0.00,,,0.00,WUHU216HW,2013-03-22 08:19:00,
2013-03-22 01:24:00,34.6,31.0,30.15,WSW,248,0.9,1.3,87,0.00,,,0.00,WUHU216HW,2013-03-22 08:24:00,
2013-03-22 01:29:00,34.6,31.0,30.15,WSW,248,0.7,1.8,87,0.00,,,0.00,WUHU216HW,2013-03-22 08:29:00,
2013-03-22 01:34:00,34.6,31.0,30.14,WSW,248,1.1,2.7,87,0.00,,,0.00,WUHU216HW,2013-03-22 08:34:00,
2013-03-22 01:39:00,34.6,31.0,30.14,WSW,248,0.9,2.7,87,0.00,,,0.00,WUHU216HW,2013-03-22 08:39:00,
2013-03-22 01:44:00,34.4,30.8,30.15,WSW,248,2.2,2.9,87,0.00,,,0.00,WUHU216HW,2013-03-22 08:44:00,
2013-03-22 01:50:00,34.6,31.3,30.15,WSW,248,0.0,2.9,88,0.00,,,0.00,WUHU216HW,2013-03-22 08:50:00,
2013-03-22 01:55:00,34.6,31.3,30.15,WSW,248,0.7,1.8,88,0.00,,,0.00,WUHU216HW,2013-03-22 08:55:00,
2013-03-22 02:00:00,34.6,31.3,30.15,WSW,248,1.8,1.8,88,0.00,,,0.00,WUHU216HW,2013-03-22 09:00:00,
2013-03-22 02:05:00,34.7,31.5,30.15,WSW,248,1.6,2.7,88,0.00,,,0.00,WUHU216HW,2013-03-22 09:05:00,
2013-03-22 02:10:00,34.9,31.7,30.15,SW,225,0.7,2.7,88,0.00,,,0.00,WUHU216HW,2013-03-22 09:10:00,
2013-03-22 02:15:00,34.9,31.7,30.15,SSW,203,0.0,1.8,88,0.00,,,0.00,WUHU216HW,2013-03-22 09:15:00,
2013-03-22 02:20:00,34.9,31.7,30.15,WSW,248,0.0,1.8,88,0.00,,,0.00,WUHU216HW,2013-03-22 09:20:00,
2013-03-22 02:25:00,35.1,31.9,30.15,WSW,248,0.4,1.6,88,0.00,,,0.00,WUHU216HW,2013-03-22 09:25:00,
2013-03-22 02:30:00,35.1,31.9,30.16,WSW,248,0.4,1.1,88,0.00,,,0.00,WUHU216HW,2013-03-22 09:30:00,
2013-03-22 02:35:00,35.1,31.9,30.16,WSW,248,0.4,1.1,88,0.00,,,0.00,WUHU216HW,2013-03-22 09:35:00,
2013-03-22 02:40:00,35.3,32.1,30.16,WSW,248,0.2,0.9,88,0.00,,,0.00,WUHU216HW,2013-03-22 09:40:00,
2013-03-22 02:45:00,35.3,32.1,30.16,SE,135,0.4,2.2,88,0.00,,,0.00,WUHU216HW,2013-03-22 09:45:00,
2013-03-22 02:50:00,35.3,32.1,30.16,SSW,203,0.0,2.2,88,0.00,,,0.00,WUHU216HW,2013-03-22 09:50:00,
2013-03-22 02:55:00,35.5,32.2,30.16,SSE,158,0.7,1.6,88,0.00,,,0.00,WUHU216HW,2013-03-22 09:55:00,
2013-03-22 03:00:00,35.5,32.2,30.15,SSE,158,0.0,2.2,88,0.00,,,0.00,WUHU216HW,2013-03-22 10:00:00,
2013-03-22 03:06:00,35.5,32.2,30.15,SE,135,1.1,2.5,88,0.00,,,0.00,WUHU216HW,2013-03-22 10:06:00,
2013-03-22 03:11:00,35.5,32.2,30.15,SSE,158,0.2,2.5,88,0.00,,,0.00,WUHU216HW,2013-03-22 10:11:00,
2013-03-22 03:16:00,35.5,32.2,30.15,SE,135,0.2,2.7,88,0.00,,,0.00,WUHU216HW,2013-03-22 10:16:00,
2013-03-22 03:21:00,35.5,31.9,30.15,SW,225,0.7,3.4,87,0.00,,,0.00,WUHU216HW,2013-03-22 10:21:00,
2013-03-22 03:26:00,35.5,31.9,30.15,South,180,2.2,3.4,87,0.00,,,0.00,WUHU216HW,2013-03-22 10:26:00,
2013-03-22 03:31:00,35.5,31.9,30.15,South,180,0.4,2.2,87,0.00,,,0.00,WUHU216HW,2013-03-22 10:31:00,
2013-03-22 03:36:00,35.5,31.9,30.15,SW,225,1.1,3.6,87,0.00,,,0.00,WUHU216HW,2013-03-22 10:36:00,
2013-03-22 03:41:00,35.5,31.9,30.15,SE,135,3.4,3.6,87,0.00,,,0.00,WUHU216HW,2013-03-22 10:41:00,
2013-03-22 03:46:00,35.5,31.9,30.15,SSW,203,0.4,3.4,87,0.00,,,0.00,WUHU216HW,2013-03-22 10:46:00,
2013-03-22 03:51:00,35.5,31.9,30.15,South,180,1.3,2.2,87,0.00,,,0.00,WUHU216HW,2013-03-22 10:51:00,
2013-03-22 03:56:00,35.5,31.9,30.16,SSE,158,2.5,3.8,87,0.00,,,0.00,WUHU216HW,2013-03-22 10:56:00,
2013-03-22 04:02:00,35.5,31.9,30.16,SE,135,0.0,3.8,87,0.00,,,0.00,WUHU216HW,2013-03-22 11:02:00,
2013-03-22 04:07:00,35.5,31.9,30.16,South,180,0.4,2.0,87,0.00,,,0.00,WUHU216HW,2013-03-22 11:07:00,
2013-03-22 04:12:00,35.5,31.9,30.16,South,180,2.0,2.5,87,0.00,,,0.00,WUHU216HW,2013-03-22 11:12:00,
2013-03-22 04:17:00,35.5,31.9,30.17,SSE,158,0.7,4.5,87,0.00,,,0.00,WUHU216HW,2013-03-22 11:17:00,
2013-03-22 04:22:00,35.5,31.9,30.17,West,270,1.6,4.5,87,0.00,,,0.00,WUHU216HW,2013-03-22 11:22:00,
2013-03-22 04:27:00,35.6,32.0,30.17,West,270,0.4,1.6,87,0.00,,,0.00,WUHU216HW,2013-03-22 11:27:00,
2013-03-22 04:32:00,35.6,32.0,30.17,NNW,338,0.0,0.9,87,0.00,,,0.00,WUHU216HW,2013-03-22 11:32:00,
2013-03-22 04:37:00,35.6,32.0,30.17,South,180,0.7,2.9,87,0.00,,,0.00,WUHU216HW,2013-03-22 11:37:00,
2013-03-22 04:42:00,35.6,32.0,30.17,SE,135,0.2,2.9,87,0.00,,,0.00,WUHU216HW,2013-03-22 11:42:00,
2013-03-22 04:47:00,35.6,32.0,30.18,SSE,158,0.4,2.7,87,0.00,,,0.00,WUHU216HW,2013-03-22 11:47:00,
2013-03-22 04:52:00,35.6,32.0,30.18,SE,135,1.1,1.8,87,0.00,,,0.00,WUHU216HW,2013-03-22 11:52:00,
2013-03-22 04:57:00,35.6,32.0,30.18,SSW,203,1.6,1.8,87,0.00,,,0.00,WUHU216HW,2013-03-22 11:57:00,
2013-03-22 05:02:00,35.6,32.0,30.18,ENE,68,0.4,3.4,87,0.00,,,0.00,WUHU216HW,2013-03-22 12:02:00,
2013-03-22 05:07:00,35.6,32.0,30.18,SSW,203,0.9,3.4,87,0.00,,,0.00,WUHU216HW,2013-03-22 12:07:00,
2013-03-22 05:12:00,35.6,32.0,30.18,West,270,0.0,1.3,87,0.00,,,0.00,WUHU216HW,2013-03-22 12:12:00,
2013-03-22 05:17:00,35.6,32.0,30.19,NNE,23,0.4,1.3,87,0.00,,,0.00,WUHU216HW,2013-03-22 12:17:00,
2013-03-22 05:22:00,35.5,31.9,30.19,North,0,0.2,0.4,87,0.00,,,0.00,WUHU216HW,2013-03-22 12:22:00,
2013-03-22 05:27:00,35.3,31.7,30.19,North,0,0.2,0.4,87,0.00,,,0.00,WUHU216HW,2013-03-22 12:27:00,
2013-03-22 05:32:00,35.3,31.7,30.19,NNE,23,0.2,0.4,87,0.00,,,0.00,WUHU216HW,2013-03-22 12:32:00,
2013-03-22 05:37:00,35.1,31.9,30.20,NNE,23,0.2,0.9,88,0.00,,,0.00,WUHU216HW,2013-03-22 12:37:00,
2013-03-22 05:42:00,35.1,31.9,30.20,NNW,338,0.4,2.5,88,0.00,,,0.00,WUHU216HW,2013-03-22 12:42:00,
2013-03-22 05:48:00,35.1,31.9,30.20,North,0,0.4,2.5,88,0.00,,,0.00,WUHU216HW,2013-03-22 12:48:00,
2013-03-22 05:53:00,34.9,31.7,30.20,North,0,0.0,0.9,88,0.00,,,0.00,WUHU216HW,2013-03-22 12:53:00,
2013-03-22 05:58:00,34.9,31.7,30.20,North,0,0.0,0.4,88,0.00,,,0.00,WUHU216HW,2013-03-22 12:58:00,
2013-03-22 06:03:00,34.9,31.7,30.21,NNE,23,0.0,0.4,88,0.00,,,0.00,WUHU216HW,2013-03-22 13:03:00,
2013-03-22 06:08:00,34.9,31.7,30.21,NE,45,0.2,0.4,88,0.00,,,0.00,WUHU216HW,2013-03-22 13:08:00,
2013-03-22 06:13:00,34.9,31.7,30.21,NE,45,0.0,0.4,88,0.00,,,0.00,WUHU216HW,2013-03-22 13:13:00,
2013-03-22 06:18:00,34.7,31.5,30.20,NE,45,0.0,0.2,88,0.00,,,0.00,WUHU216HW,2013-03-22 13:18:00,
2013-03-22 06:23:00,34.7,31.1,30.21,NE,45,0.0,0.2,87,0.00,,,0.00,WUHU216HW,2013-03-22 13:23:00,
2013-03-22 06:28:00,34.7,31.1,30.21,NE,45,0.0,0.2,87,0.01,,,0.01,WUHU216HW,2013-03-22 13:28:00,
2013-03-22 06:33:00,34.6,31.0,30.20,NE,45,0.0,0.0,87,0.01,,,0.01,WUHU216HW,2013-03-22 13:33:00,
2013-03-22 06:38:00,34.6,31.0,30.21,NNW,338,0.2,0.7,87,0.01,,,0.01,WUHU216HW,2013-03-22 13:38:00,
2013-03-22 06:43:00,34.6,31.3,30.21,WNW,293,0.0,1.1,88,0.01,,,0.01,WUHU216HW,2013-03-22 13:43:00,
2013-03-22 06:48:00,34.6,31.3,30.21,WNW,293,0.0,1.1,88,0.01,,,0.01,WUHU216HW,2013-03-22 13:48:00,
2013-03-22 06:53:00,34.6,31.3,30.22,WNW,293,0.0,0.2,88,0.01,,,0.01,WUHU216HW,2013-03-22 13:53:00,
2013-03-22 06:58:00,34.4,31.2,30.22,NW,315,0.0,0.2,88,0.01,,,0.01,WUHU216HW,2013-03-22 13:58:00,
2013-03-22 07:03:00,34.2,31.0,30.22,WNW,293,0.0,0.4,88,0.01,,,0.01,WUHU216HW,2013-03-22 14:03:00,
2013-03-22 07:08:00,34.2,31.0,30.22,NNW,338,0.2,0.4,88,0.01,,,0.01,WUHU216HW,2013-03-22 14:08:00,
2013-03-22 07:13:00,34.2,31.0,30.22,North,0,0.0,0.4,88,0.01,,,0.01,WUHU216HW,2013-03-22 14:13:00,
2013-03-22 07:18:00,34.2,31.0,30.22,North,0,0.0,0.4,88,0.01,,,0.01,WUHU216HW,2013-03-22 14:18:00,
2013-03-22 07:24:00,34.2,31.0,30.23,North,0,0.0,0.0,88,0.00,,,0.01,WUHU216HW,2013-03-22 14:24:00,
2013-03-22 07:29:00,34.2,31.0,30.23,North,0,0.0,0.0,88,0.00,,,0.01,WUHU216HW,2013-03-22 14:29:00,
2013-03-22 07:34:00,34.2,31.0,30.23,North,0,0.0,0.0,88,0.00,,,0.01,WUHU216HW,2013-03-22 14:34:00,
2013-03-22 07:39:00,34.2,31.0,30.23,North,0,0.0,0.0,88,0.00,,,0.01,WUHU216HW,2013-03-22 14:39:00,
2013-03-22 07:44:00,34.2,31.0,30.23,NNE,23,0.0,0.0,88,0.00,,,0.01,WUHU216HW,2013-03-22 14:44:00,
2013-03-22 07:49:00,34.2,31.0,30.23,NNE,23,0.0,0.0,88,0.00,,,0.01,WUHU216HW,2013-03-22 14:49:00,
2013-03-22 07:54:00,34.2,31.0,30.23,NNE,23,0.0,0.0,88,0.00,,,0.01,WUHU216HW,2013-03-22 14:54:00,
2013-03-22 07:59:00,34.4,31.2,30.23,NNE,23,0.0,0.0,88,0.00,,,0.01,WUHU216HW,2013-03-22 14:59:00,
2013-03-22 08:04:00,34.4,31.2,30.23,NNE,23,0.0,0.0,88,0.00,,,0.01,WUHU216HW,2013-03-22 15:04:00,
2013-03-22 08:09:00,34.4,31.2,30.23,NNE,23,0.0,0.0,88,0.00,,,0.01,WUHU216HW,2013-03-22 15:09:00,
2013-03-22 08:14:00,34.4,31.2,30.23,NNE,23,0.0,0.0,88,0.00,,,0.01,WUHU216HW,2013-03-22 15:14:00,
2013-03-22 09:00:00,35.5,32.2,30.24,NNE,23,0.0,0.0,88,0.01,,,0.01,WUHU216HW,2013-03-22 16:00:00,
2013-03-22 09:05:00,35.5,32.2,30.24,NNE,23,0.0,0.0,88,0.01,,,0.01,WUHU216HW,2013-03-22 16:05:00,
2013-03-22 10:00:00,38.2,34.9,30.25,ESE,113,0.0,0.0,88,0.02,,,0.02,WUHU216HW,2013-03-22 17:00:00,
2013-03-22 10:05:00,38.2,34.9,30.25,ESE,113,0.0,0.0,88,0.02,,,0.02,WUHU216HW,2013-03-22 17:05:00,
2013-03-22 11:00:00,41.9,37.5,30.25,North,0,0.0,0.0,84,0.06,,,0.04,WUHU216HW,2013-03-22 18:00:00,
2013-03-22 11:05:00,41.9,37.5,30.25,North,0,0.0,0.0,84,0.06,,,0.04,WUHU216HW,2013-03-22 18:05:00,
2013-03-22 12:00:00,42.5,36.1,30.27,NNW,338,1.1,1.1,78,0.05,,,0.10,WUHU216HW,2013-03-22 19:00:00,
2013-03-22 12:05:00,42.5,36.1,30.27,NNW,338,1.1,1.1,78,0.05,,,0.10,WUHU216HW,2013-03-22 19:05:00,
2013-03-22 13:00:00,44.3,36.8,30.27,NNW,338,0.0,0.0,75,0.00,,,0.15,WUHU216HW,2013-03-22 20:00:00,
2013-03-22 13:05:00,44.3,36.8,30.27,NNW,338,0.0,0.0,75,0.00,,,0.15,WUHU216HW,2013-03-22 20:05:00,
2013-03-22 14:00:00,44.3,34.4,30.27,North,0,0.2,0.2,68,0.00,,,0.15,WUHU216HW,2013-03-22 21:00:00,
2013-03-22 14:05:00,44.3,34.4,30.27,North,0,0.2,0.2,68,0.00,,,0.15,WUHU216HW,2013-03-22 21:05:00,
2013-03-22 15:00:00,45.9,35.9,30.26,North,0,0.4,0.4,68,0.00,,,0.15,WUHU216HW,2013-03-22 22:00:00,
2013-03-22 15:05:00,45.9,35.9,30.26,North,0,0.4,0.4,68,0.00,,,0.15,WUHU216HW,2013-03-22 22:05:00,
2013-03-22 16:00:00,46.1,35.4,30.25,SE,135,2.7,2.7,66,0.00,,,0.15,WUHU216HW,2013-03-22 23:00:00,
2013-03-22 16:05:00,46.1,35.4,30.25,SE,135,2.7,2.7,66,0.00,,,0.15,WUHU216HW,2013-03-22 23:05:00,
2013-03-22 17:00:00,45.7,32.2,30.26,North,0,1.8,1.8,59,0.00,,,0.15,WUHU216HW,2013-03-23 00:00:00,
2013-03-22 17:05:00,45.7,32.2,30.26,North,0,1.8,1.8,59,0.00,,,0.15,WUHU216HW,2013-03-23 00:05:00,
2013-03-22 18:00:00,43.9,30.5,30.26,North,0,0.4,0.4,59,0.00,,,0.15,WUHU216HW,2013-03-23 01:00:00,
2013-03-22 18:05:00,43.9,30.5,30.26,North,0,0.4,0.4,59,0.00,,,0.15,WUHU216HW,2013-03-23 01:05:00,
2013-03-22 19:00:00,42.1,31.1,30.26,WNW,293,0.0,0.0,65,0.01,,,0.15,WUHU216HW,2013-03-23 02:00:00,
2013-03-22 19:05:00,42.1,31.1,30.26,WNW,293,0.0,0.0,65,0.01,,,0.15,WUHU216HW,2013-03-23 02:05:00,
2013-03-22 20:00:00,38.9,29.9,30.26,WNW,293,0.0,0.0,70,0.00,,,0.16,WUHU216HW,2013-03-23 03:00:00,
2013-03-22 20:05:00,38.9,29.9,30.26,WNW,293,0.0,0.0,70,0.00,,,0.16,WUHU216HW,2013-03-23 03:05:00,
2013-03-22 21:00:00,36.0,28.4,30.28,WSW,248,0.0,0.0,74,0.00,,,0.16,WUHU216HW,2013-03-23 04:00:00,
2013-03-22 21:01:00,36.0,28.4,30.28,WSW,248,0.0,0.0,74,0.00,,,0.16,WUHU216HW,2013-03-23 04:01:00,
2013-03-22 21:07:00,36.0,28.4,30.28,WSW,248,0.0,0.0,74,0.00,,,0.16,WUHU216HW,2013-03-23 04:07:00,
2013-03-22 22:00:00,34.0,27.8,30.29,North,0,0.4,0.4,78,0.00,,,0.16,WUHU216HW,2013-03-23 05:00:00,
2013-03-22 22:05:00,34.0,27.8,30.29,North,0,0.4,0.4,78,0.00,,,0.16,WUHU216HW,2013-03-23 05:05:00,
2013-03-22 23:00:00,32.4,27.0,30.29,West,270,0.0,0.0,80,0.00,,,0.16,WUHU216HW,2013-03-23 06:00:00,
2013-03-22 23:05:00,32.4,27.0,30.29,West,270,0.0,0.0,80,0.00,,,0.16,WUHU216HW,2013-03-23 06:05:00,